• Join FlightAware (Why Join?)
  • Login
  • US Flag 
01:12PM EDT


 

Airport Tracker/Info


-or-


 

Live Flight TrackerFlight Track Log ✈ SWA2403 ✈ 22-Apr-2013 ✈ KSDF - KLAS

Flight Track Log - Related Links

Times and Time Zones

All times are in EDT time to prevent confusion due to time zone crossing. See the SWA2403 flight status page for this flight to view local times or setup timezone preferences in your user account.

Time Position Orientation Groundspeed Altitude Reporting Facility
EDT Latitude Longitude Course Direction KTS MPH feet Rate Location/Type
05:02PM 38.1392 -85.7331 178° South 161 185 1,900  Level FAA TRACON SMA TRACON (SMA)
05:02PM 38.1233 -85.7322 178° South 178 205 2,200 1,020 Climbing FAA TRACON SMA TRACON (SMA)
05:03PM 38.1006 -85.7367 189° South 212 244 2,600 1,320 Climbing FAA TRACON SMA TRACON (SMA)
05:03PM 38.0844 -85.7536 220° Southwest 247 284 3,100 1,800 Climbing FAA TRACON SMA TRACON (SMA)
05:03PM 38.0775 -85.7806 252° West 267 307 3,800 2,700 Climbing FAA TRACON SMA TRACON (SMA)
05:04PM 38.0767 -85.8169 268° West 270 311 4,900 3,300 Climbing FAA TRACON SMA TRACON (SMA)
05:04PM 38.0756 -85.8469 267° West 273 314 6,000 3,120 Climbing FAA TRACON SMA TRACON (SMA)
05:04PM 38.0747 -85.8767 268° West 276 318 7,200 3,480 Climbing FAA TRACON SMA TRACON (SMA)
05:05PM 38.0733 -85.9150 267° West 282 325 8,500 3,480 Climbing FAA TRACON SMA TRACON (SMA)
05:05PM 38.0714 -85.9456 265° West 285 328 9,500 2,220 Climbing FAA TRACON SMA TRACON (SMA)
05:05PM 38.0692 -85.9844 266° West 288 331 10,000 1,080 Climbing FAA TRACON SMA TRACON (SMA)
05:06PM 38.0672 -86.0167 266° West 295 339 10,200 960 Climbing FAA TRACON SMA TRACON (SMA)
05:06PM 38.0653 -86.0511 266° West 313 360 10,600 1,500 Climbing FAA TRACON SMA TRACON (SMA)
05:06PM 38.0633 -86.0878 266° West 332 382 11,200 2,520 Climbing FAA TRACON SMA TRACON (SMA)
05:07PM 38.0608 -86.1247 265° West 342 394 12,300 3,420 Climbing FAA TRACON SMA TRACON (SMA)
05:07PM 38.0586 -86.1714 267° West 346 398 13,500 2,880 Climbing FAA TRACON SMA TRACON (SMA)
05:07PM 38.0558 -86.2100 265° West 352 405 14,300 2,520 Climbing FAA TRACON SMA TRACON (SMA)
05:08PM 38.0531 -86.2489 265° West 359 413 15,200 2,640 Climbing FAA TRACON SMA TRACON (SMA)
05:08PM 38.0506 -86.2986 266° West 367 422 16,200 2,820 Climbing FAA TRACON SMA TRACON (SMA)
05:08PM 38.0467 -86.3492 264° West 373 429 17,300 2,640 Climbing FAA TRACON SMA TRACON (SMA)
05:09PM 38.0442 -86.3794 264° West 375 432 17,800 2,400 Climbing FAA TRACON SMA TRACON (SMA)
05:09PM 38.0403 -86.4308 265° West 380 437 18,800 2,700 Climbing FAA TRACON SMA TRACON (SMA)
05:09PM 38.0375 -86.4725 265° West 384 442 19,600 2,100 Climbing FAA TRACON SMA TRACON (SMA)
05:10PM 38.0342 -86.5144 264° West 390 449 20,200 2,160 Climbing FAA TRACON SMA TRACON (SMA)
05:10PM 38.0306 -86.5681 265° West 396 456 21,100 2,400 Climbing FAA TRACON SMA TRACON (SMA)
05:10PM 38.0267 -86.6117 264° West 403 464 21,800 2,100 Climbing FAA TRACON SMA TRACON (SMA)
05:11PM 38.0236 -86.6556 265° West 405 466 22,500 2,400 Climbing FAA TRACON SMA TRACON (SMA)
05:11PM 38.0203 -86.7103 266° West 406 467 23,400 2,400 Climbing FAA TRACON SMA TRACON (SMA)
05:11PM 38.0167 -86.7547 264° West 410 472 24,100 2,340 Climbing FAA TRACON SMA TRACON (SMA)
05:12PM 38.0128 -86.8106 265° West 413 475 25,000 1,800 Climbing FAA TRACON SMA TRACON (SMA)
05:12PM 38.0069 -86.8250 243° Southwest 409 471 25,300 1,680 Climbing Indianapolis Center
05:13PM 37.9956 -86.9728 264° West 414 476 27,300 1,680 Climbing Indianapolis Center
05:14PM 37.9817 -87.1242 263° West 424 488 28,800 1,920 Climbing Indianapolis Center
05:15PM 37.9675 -87.3069 264° West 429 494 31,300 2,100 Climbing Indianapolis Center
05:16PM 37.9542 -87.4553 264° West 422 486 33,200 1,260 Climbing Indianapolis Center
05:17PM 37.9408 -87.5994 263° West 414 476 34,000 360 Climbing Indianapolis Center
05:18PM 37.9283 -87.7433 264° West 409 471 34,000  Level Indianapolis Center
05:19PM 37.9156 -87.8881 264° West 409 471 34,000  Level Kansas City Center
05:20PM 37.9025 -88.0319 263° West 409 471 34,000  Level Kansas City Center
05:21PM 37.8889 -88.1728 263° West 404 465 34,000  Level Kansas City Center
05:22PM 37.8744 -88.3158 263° West 406 467 34,000  Level Kansas City Center
05:23PM 37.8619 -88.4575 264° West 405 466 34,000 540 Level Kansas City Center
05:24PM 37.8475 -88.5981 263° West 402 463 35,200 960 Climbing Kansas City Center
05:25PM 37.8347 -88.7378 263° West 399 459 36,000 360 Climbing Kansas City Center
05:27PM 37.8192 -88.8781 262° West 401 461 36,000  Level Kansas City Center
05:28PM 37.8036 -89.0333 263° West 397 457 36,000  Level Kansas City Center
05:29PM 37.7894 -89.1686 262° West 392 451 36,000  Level Kansas City Center
05:30PM 37.7750 -89.3044 262° West 391 450 36,000 240 Level Kansas City Center
05:31PM 37.7597 -89.4506 263° West 392 451 36,500 660 Climbing Kansas City Center
05:32PM 37.7447 -89.5900 262° West 396 456 37,400 720 Climbing Kansas City Center
05:33PM 37.7294 -89.7303 262° West 401 461 38,000 240 Climbing Kansas City Center
05:34PM 37.7142 -89.8669 262° West 398 458 38,000  Level Kansas City Center
05:35PM 37.6958 -90.0308 262° West 394 453 38,000  Level Kansas City Center
05:36PM 37.6814 -90.1644 262° West 389 448 38,000  Level Kansas City Center
05:37PM 37.6583 -90.2975 258° West 389 448 38,000  Level Kansas City Center
05:38PM 37.6267 -90.4267 253° West 388 447 38,000  Level Kansas City Center
05:39PM 37.5950 -90.5592 253° West 391 450 38,000  Level Kansas City Center
05:40PM 37.5642 -90.6892 253° West 391 450 38,000  Level Kansas City Center
05:41PM 37.5292 -90.8275 252° West 380 437 38,000  Level Kansas City Center
05:42PM 37.4967 -90.9564 252° West 382 440 38,000  Level Kansas City Center
05:43PM 37.4661 -91.0828 253° West 379 436 38,000  Level Kansas City Center
05:44PM 37.4350 -91.2089 253° West 376 433 38,000  Level Kansas City Center
05:45PM 37.3986 -91.3589 253° West 372 428 38,000  Level Kansas City Center
05:46PM 37.3667 -91.4847 252° West 374 430 38,000  Level Kansas City Center
05:47PM 37.3353 -91.6086 252° West 372 428 38,000  Level Kansas City Center
05:48PM 37.3036 -91.7339 252° West 373 429 38,000  Level Kansas City Center
05:49PM 37.2736 -91.8581 253° West 370 426 38,000  Level Kansas City Center
05:50PM 37.2414 -91.9828 252° West 372 428 38,000  Level Kansas City Center
05:51PM 37.2103 -92.1067 253° West 371 427 38,000  Level Kansas City Center
05:52PM 37.1783 -92.2303 252° West 371 427 38,000  Level Kansas City Center
05:53PM 37.1406 -92.3778 252° West 369 425 38,000  Level Kansas City Center
05:54PM 37.1083 -92.4981 251° West 366 421 38,000  Level Kansas City Center
05:55PM 37.0772 -92.6208 252° West 366 421 38,000  Level Kansas City Center
05:56PM 37.0447 -92.7439 252° West 369 425 38,000  Level Kansas City Center
05:57PM 37.0133 -92.8650 252° West 367 422 38,000  Level Kansas City Center
05:58PM 36.9808 -92.9861 251° West 365 420 38,000  Level Kansas City Center
06:00PM 36.9483 -93.1072 251° West 366 421 38,000  Level Kansas City Center
06:01PM 36.9164 -93.2286 252° West 367 422 38,000  Level Kansas City Center
06:02PM 36.8764 -93.3742 251° West 368 423 38,000  Level Kansas City Center
06:03PM 36.8492 -93.4742 251° West 368 423 38,000  Level Kansas City Center
06:04PM 36.8092 -93.6203 251° West 370 426 38,000  Level Kansas City Center
06:05PM 36.7767 -93.7408 251° West 370 426 38,000  Level Kansas City Center
06:06PM 36.7450 -93.8592 252° West 363 418 38,000  Level Kansas City Center
06:07PM 36.7111 -93.9794 251° West 365 420 38,000  Level Kansas City Center
06:08PM 36.6781 -94.1022 251° West 372 428 38,000  Level Kansas City Center
06:09PM 36.6442 -94.2242 251° West 371 427 38,000  Level Kansas City Center
06:10PM 36.6044 -94.3442 248° West 376 433 38,000  Level Kansas City Center
06:11PM 36.5003 -94.4544 220° Southwest 404 465 38,000  Level Kansas City Center
06:12PM 36.4156 -94.5467 221° Southwest 403 464 38,000  Level Kansas City Center
06:13PM 36.3719 -94.6622 245° Southwest 378 435 38,000  Level Kansas City Center
06:14PM 36.3319 -94.7819 248° West 373 429 38,000  Level Kansas City Center
06:15PM 36.2925 -94.9006 248° West 372 428 38,000  Level Kansas City Center
06:16PM 36.2533 -95.0189 248° West 370 426 38,000  Level Kansas City Center
06:17PM 36.2156 -95.1344 248° West 368 423 38,000  Level Kansas City Center
06:18PM 36.1681 -95.2728 247° West 365 420 38,000  Level Kansas City Center
06:19PM 36.1294 -95.3903 248° West 367 422 38,000  Level Kansas City Center
06:20PM 36.0900 -95.5072 247° West 369 425 38,000  Level Kansas City Center
06:21PM 36.0469 -95.6342 247° West 371 427 38,000  Level Kansas City Center
06:22PM 36.0067 -95.7539 247° West 374 430 38,000  Level Kansas City Center
06:23PM 35.9664 -95.8733 247° West 375 432 38,000  Level Kansas City Center
06:24PM 35.9264 -95.9925 248° West 375 432 38,000  Level Kansas City Center
06:25PM 35.8847 -96.1106 246° West 374 430 38,000  Level Kansas City Center
06:26PM 35.8442 -96.2281 247° West 372 428 38,000  Level Kansas City Center
06:27PM 35.8039 -96.3450 247° West 371 427 38,000  Level Kansas City Center
06:28PM 35.7600 -96.4717 247° West 370 426 38,000  Level Kansas City Center
06:29PM 35.7197 -96.5878 247° West 369 425 38,000  Level Kansas City Center
06:30PM 35.6792 -96.7028 247° West 368 423 38,000  Level Kansas City Center
06:31PM 35.6311 -96.8419 247° West 369 425 38,000  Level Kansas City Center
06:32PM 35.6197 -96.8722 245° Southwest 382 440 38,000  Level Fort Worth Center
06:33PM 35.5744 -97.0003 247° West 387 445 38,000  Level Fort Worth Center
06:34PM 35.5353 -97.1150 247° West 381 438 38,000  Level Fort Worth Center
06:35PM 35.4958 -97.2300 247° West 376 433 38,000  Level Fort Worth Center
06:36PM 35.4542 -97.3422 246° West 381 438 38,000  Level Fort Worth Center
06:37PM 35.4144 -97.4544 247° West 381 438 38,000  Level Fort Worth Center
06:38PM 35.3664 -97.5917 247° West 393 452 38,000  Level Fort Worth Center
06:39PM 35.3411 -97.7089 255° West 381 438 38,000  Level Fort Worth Center
06:40PM 35.3242 -97.8333 261° West 375 432 38,000  Level Fort Worth Center
06:41PM 35.3069 -97.9581 260° West 375 432 38,000  Level Fort Worth Center
06:42PM 35.2897 -98.0800 260° West 375 432 38,000  Level Fort Worth Center
06:43PM 35.2722 -98.2044 260° West 375 432 38,000  Level Fort Worth Center
06:44PM 35.2547 -98.3264 260° West 375 432 38,000  Level Fort Worth Center
06:45PM 35.2350 -98.4531 259° West 375 432 38,000  Level Fort Worth Center
06:46PM 35.2194 -98.5597 260° West 364 419 38,000  Level Fort Worth Center
06:47PM 35.1994 -98.6967 260° West 370 426 38,000  Level Fort Worth Center
06:48PM 35.1792 -98.8208 259° West 370 426 38,000  Level Fort Worth Center
06:49PM 35.1611 -98.9475 260° West 370 426 38,000  Level Fort Worth Center
06:50PM 35.1408 -99.0714 259° West 370 426 38,000  Level Fort Worth Center
06:51PM 35.1203 -99.1953 259° West 370 426 38,000  Level Fort Worth Center
06:52PM 35.1017 -99.3167 259° West 370 426 38,000  Level Fort Worth Center
06:54PM 35.0694 -99.5364 260° West 369 425 38,000  Level Albuquerque Center
06:55PM 35.0497 -99.6611 259° West 372 428 38,000  Level Albuquerque Center
06:56PM 35.0289 -99.7878 259° West 377 434 38,000  Level Albuquerque Center
06:57PM 35.0089 -99.9169 259° West 383 441 38,000  Level Albuquerque Center
06:58PM 34.9869 -100.0481 258° West 390 449 38,000  Level Albuquerque Center
06:59PM 34.9639 -100.1828 258° West 400 460 38,000  Level Albuquerque Center
07:00PM 34.9411 -100.3375 260° West 389 448 38,000  Level Albuquerque Center
07:01PM 34.9231 -100.4394 258° West 372 428 38,000  Level Albuquerque Center
07:02PM 34.8989 -100.5833 258° West 364 419 38,000  Level Albuquerque Center
07:03PM 34.8781 -100.7044 258° West 364 419 38,000  Level Albuquerque Center
07:04PM 34.8578 -100.8267 259° West 367 422 38,000  Level Albuquerque Center
07:05PM 34.8364 -100.9494 258° West 369 425 38,000  Level Albuquerque Center
07:06PM 34.8158 -101.0708 258° West 368 423 38,000  Level Albuquerque Center
07:07PM 34.7936 -101.1919 257° West 367 422 38,000  Level Albuquerque Center
07:08PM 34.7722 -101.3147 258° West 369 425 38,000  Level Albuquerque Center
07:09PM 34.7511 -101.4369 258° West 368 423 38,000  Level Albuquerque Center
07:10PM 34.7292 -101.5606 258° West 371 427 38,000  Level Albuquerque Center
07:11PM 34.7025 -101.7086 258° West 371 427 38,000  Level Albuquerque Center
07:12PM 34.6806 -101.8328 258° West 374 430 38,000  Level Albuquerque Center
07:13PM 34.6583 -101.9581 258° West 376 433 38,000  Level Albuquerque Center
07:14PM 34.6356 -102.0819 257° West 377 434 38,000  Level Albuquerque Center
07:15PM 34.6125 -102.2078 257° West 379 436 38,000  Level Albuquerque Center
07:16PM 34.5894 -102.3322 257° West 379 436 38,000  Level Albuquerque Center
07:17PM 34.5667 -102.4547 257° West 375 432 38,000  Level Albuquerque Center
07:18PM 34.5444 -102.5769 258° West 372 428 38,000  Level Albuquerque Center
07:19PM 34.5214 -102.7047 258° West 374 430 38,000  Level Albuquerque Center
07:20PM 34.4989 -102.8314 258° West 378 435 38,000  Level Albuquerque Center
07:21PM 34.5175 -102.9781 279° West 374 430 38,000  Level Albuquerque Center
07:22PM 34.5367 -103.1047 280° West 377 434 38,000  Level Albuquerque Center
07:23PM 34.5556 -103.2300 280° West 376 433 38,000  Level Albuquerque Center
07:24PM 34.5744 -103.3567 280° West 377 434 38,000  Level Albuquerque Center
07:25PM 34.5931 -103.4828 280° West 377 434 38,000  Level Albuquerque Center
07:26PM 34.6119 -103.6086 280° West 376 433 38,000  Level Albuquerque Center
07:28PM 34.6314 -103.7361 281° West 379 436 38,000  Level Albuquerque Center
07:29PM 34.6483 -103.8628 279° West 377 434 38,000  Level Albuquerque Center
07:31PM 34.6858 -104.1167 280° West 377 434 38,000  Level Albuquerque Center
07:32PM 34.7042 -104.2450 280° West 378 435 38,000  Level Albuquerque Center
07:33PM 34.7228 -104.3728 280° West 379 436 38,000  Level Albuquerque Center
07:34PM 34.7400 -104.5011 279° West 380 437 38,000  Level Albuquerque Center
07:35PM 34.7592 -104.6283 280° West 379 436 38,000  Level Albuquerque Center
07:36PM 34.7769 -104.7575 280° West 382 440 38,000  Level Albuquerque Center
07:37PM 34.7978 -104.9067 280° West 379 436 38,000  Level Albuquerque Center
07:38PM 34.8153 -105.0342 280° West 379 436 38,000  Level Albuquerque Center
07:39PM 34.8333 -105.1653 280° West 384 442 38,000  Level Albuquerque Center
07:40PM 34.8514 -105.2969 280° West 389 448 38,000  Level Albuquerque Center
07:41PM 34.8689 -105.4283 279° West 390 449 38,000  Level Albuquerque Center
07:42PM 34.8864 -105.5592 279° West 389 448 38,000  Level Albuquerque Center
07:43PM 34.9036 -105.6903 279° West 388 447 38,000  Level Albuquerque Center
07:44PM 34.9208 -105.8219 279° West 390 449 38,000  Level Albuquerque Center
07:45PM 34.9369 -105.9528 279° West 388 447 38,000  Level Albuquerque Center
07:46PM 34.9533 -106.0819 279° West 387 445 38,000  Level Albuquerque Center
07:47PM 34.9689 -106.2078 279° West 379 436 38,000  Level Albuquerque Center
07:48PM 34.9844 -106.3361 278° West 380 437 38,000  Level Albuquerque Center
07:49PM 35.0006 -106.4667 279° West 388 447 38,000  Level Albuquerque Center
07:50PM 35.0178 -106.6131 278° West 388 447 38,000  Level Albuquerque Center
07:51PM 35.0317 -106.7356 278° West 384 442 38,000  Level Albuquerque Center
07:52PM 35.0556 -106.8725 282° West 372 428 38,000  Level Albuquerque Center
07:53PM 35.0828 -106.9889 286° West 372 428 38,000  Level Albuquerque Center
07:54PM 35.1131 -107.1261 285° West 374 430 38,000  Level Albuquerque Center
07:55PM 35.1339 -107.2308 284° West 384 442 38,000  Level Albuquerque Center
07:56PM 35.1553 -107.3833 280° West 381 438 38,000  Level Albuquerque Center
07:57PM 35.1678 -107.5117 277° West 378 435 38,000  Level Albuquerque Center
07:58PM 35.1814 -107.6342 278° West 378 435 38,000  Level Albuquerque Center
07:59PM 35.1939 -107.7792 276° West 382 440 38,000  Level Albuquerque Center
08:00PM 35.2061 -107.9011 277° West 380 437 38,000  Level Albuquerque Center
08:01PM 35.2194 -108.0225 278° West 377 434 38,000  Level Albuquerque Center
08:02PM 35.2328 -108.1664 277° West 380 437 38,000  Level Albuquerque Center
08:03PM 35.2436 -108.2886 276° West 378 435 38,000  Level Albuquerque Center
08:04PM 35.2583 -108.4336 277° West 382 440 38,000  Level Albuquerque Center
08:05PM 35.2703 -108.5581 277° West 383 441 38,000  Level Albuquerque Center
08:06PM 35.2814 -108.6836 276° West 384 442 38,000  Level Albuquerque Center
08:07PM 35.2947 -108.8300 276° West 386 444 38,000  Level Albuquerque Center
08:08PM 35.3064 -108.9544 277° West 385 443 38,000  Level Albuquerque Center
08:10PM 35.3189 -109.1011 276° West 386 444 38,000  Level Albuquerque Center
08:11PM 35.3303 -109.2258 276° West 385 443 38,000  Level Albuquerque Center
08:12PM 35.3428 -109.3708 276° West 384 442 38,000  Level Albuquerque Center
08:13PM 35.3542 -109.4967 276° West 386 444 38,000  Level Albuquerque Center
08:14PM 35.3633 -109.6222 275° West 386 444 38,000  Level Albuquerque Center
08:15PM 35.3761 -109.7692 276° West 388 447 38,000  Level Albuquerque Center
08:16PM 35.3867 -109.8933 276° West 385 443 38,000  Level Albuquerque Center
08:17PM 35.3972 -110.0381 275° West 383 441 38,000  Level Albuquerque Center
08:18PM 35.4050 -110.1633 274° West 385 443 38,000  Level Albuquerque Center
08:19PM 35.4167 -110.3089 276° West 384 442 38,000  Level Albuquerque Center
08:20PM 35.4244 -110.4311 275° West 380 437 38,000  Level Albuquerque Center
08:21PM 35.4342 -110.5539 276° West 378 435 38,000  Level Albuquerque Center
08:22PM 35.4436 -110.6992 275° West 382 440 38,000  Level Albuquerque Center
08:23PM 35.4550 -110.8239 276° West 384 442 38,000  Level Albuquerque Center
08:24PM 35.4647 -110.9719 275° West 388 447 38,000  Level Albuquerque Center
08:25PM 35.4742 -111.0989 275° West 390 449 38,000  Level Albuquerque Center
08:26PM 35.4858 -111.2500 275° West 396 456 38,000 -720 Level Albuquerque Center
08:27PM 35.4950 -111.3769 275° West 394 453 36,600 -2,220 Descending Albuquerque Center
08:28PM 35.5033 -111.5208 274° West 401 461 33,500 -2,880 Descending Albuquerque Center
08:29PM 35.5139 -111.6556 276° West 401 461 30,800 -1,740 Descending Albuquerque Center
08:30PM 35.5228 -111.7906 275° West 400 460 30,000 -420 Descending Albuquerque Center
08:31PM 35.5322 -111.9267 275° West 401 461 30,000  Level Albuquerque Center
08:32PM 35.5406 -112.0633 274° West 403 464 30,000  Level Albuquerque Center
08:33PM 35.5458 -112.1442 275° West 402 463 30,000  Level Los Angeles Center
08:33PM 35.5494 -112.2244 273° West 399 459 30,000  Level Albuquerque Center
08:34PM 35.5578 -112.3603 274° West 402 463 30,000  Level Albuquerque Center
08:35PM 35.5614 -112.4169 274° West 405 466 30,000  Level Los Angeles Center
08:36PM 35.5697 -112.5533 274° West 405 466 30,000  Level Los Angeles Center
08:37PM 35.5786 -112.7006 274° West 401 461 30,000  Level Los Angeles Center
08:38PM 35.5867 -112.8369 274° West 400 460 30,000  Level Los Angeles Center
08:39PM 35.5958 -112.9850 274° West 400 460 30,000  Level Los Angeles Center
08:40PM 35.6028 -113.1258 274° West 411 473 30,000  Level Los Angeles Center
08:41PM 35.6103 -113.2647 274° West 409 471 30,000 -780 Level Los Angeles Center
08:42PM 35.6183 -113.4217 274° West 405 466 28,400 -1,980 Descending Los Angeles Center
08:43PM 35.6258 -113.5561 274° West 398 458 26,000 -2,400 Descending Los Angeles Center
08:44PM 35.6442 -113.6811 280° West 382 440 23,600 -2,340 Descending Los Angeles Center
08:45PM 35.6622 -113.8047 280° West 372 428 21,300 -2,220 Descending Los Angeles Center
08:46PM 35.6786 -113.9236 280° West 361 415 19,100 -2,280 Descending Los Angeles Center
08:47PM 35.6975 -114.0597 280° West 342 394 16,600 -2,220 Descending Los Angeles Center
08:48PM 35.7133 -114.1697 280° West 332 382 14,600 -2,040 Descending Los Angeles Center
08:49PM 35.7261 -114.2436 282° West 334 384 13,300 -1,800 Descending Los Angeles Center
08:49PM 35.7258 -114.2694 269° West 328 377 12,800 -900 Descending Los Angeles Center
08:50PM 35.7575 -114.3886 288° West 321 369 12,000 -420 Descending Los Angeles Center
08:51PM 35.8339 -114.4253 339° North 297 342 12,000 -540 Level Los Angeles Center
08:52PM 35.8919 -114.4953 316° Northwest 296 341 11,000 -1,020 Descending Los Angeles Center
08:53PM 35.9539 -114.5731 315° West 289 333 9,900 -1,080 Descending Los Angeles Center
08:54PM 36.0050 -114.6383 314° West 283 326 8,900 -900 Descending Los Angeles Center
08:55PM 36.0569 -114.7061 313° West 257 296 8,200 -720 Descending Los Angeles Center
08:56PM 36.0736 -114.7725 287° West 245 282 7,600 -540 Descending Los Angeles Center
08:56PM 36.0736 -114.7761 270° West 256 295 7,600 -960 Level Los Angeles Center
08:57PM 36.0733 -114.8683 270° West 226 260 6,500 -1,380 Descending Los Angeles Center
08:58PM 36.0739 -114.9400 271° West 227 261 5,100 -1,320 Descending Los Angeles Center
08:59PM 36.0736 -115.0175 270° West 194 223 3,900 -1,020 Descending Los Angeles Center
09:00PM 36.0736 -115.0747 270° West 191 220 2,900 -840 Descending Los Angeles Center
09:01PM 36.0742 -115.1250 271° West 166 191 2,100 -780 Descending Los Angeles Center
09:03PM 36.0667 -115.1500 270° West  Level FlightAware Approximate
09:10PM 36.0801 -115.1523 270° West  Level Estimated